This is the latest recevied weather packets stored in our database for station/object K3RUP-1. If no packets are shown the sender has not sent any weather packets the latest 1 day(s).
| Time | Temp. | Humidity | Pressure | Rain* | Wind** | Luminosity | Snow |
|---|---|---|---|---|---|---|---|
| 1778039357 | 18.89° C | 73% | 1010.1 hPa | 0 mm | - | 0 W/m² | - |
| 1778039054 | 18.89° C | 73% | 1010.2 hPa | 0 mm | - | 0 W/m² | - |
| 1778038751 | 18.89° C | 72% | 1010.2 hPa | 0 mm | - | 0 W/m² | - |
| 1778038449 | 18.89° C | 72% | 1010.1 hPa | 0 mm | - | 0 W/m² | - |
| 1778037539 | 19.44° C | 68% | 1010 hPa | 0 mm | - | 0 W/m² | - |
| 1778037236 | 19.44° C | 67% | 1009.9 hPa | 0 mm | - | 0 W/m² | - |
| 1778036934 | 20° C | 66% | 1010 hPa | 0 mm | - | 0 W/m² | - |
| 1778036632 | 19.44° C | 67% | 1010 hPa | 0 mm | - | 0 W/m² | - |
| 1778036328 | 20° C | 67% | 1009.8 hPa | 0 mm | - | 0 W/m² | - |
| 1778035722 | 19.44° C | 66% | 1010 hPa | 0 mm | - | 0 W/m² | - |
| 1778035419 | 19.44° C | 66% | 1010.1 hPa | 0 mm | - | 0 W/m² | - |
| 1778035115 | 19.44° C | 66% | 1010.2 hPa | 0 mm | - | 0 W/m² | - |
| 1778034206 | 18.89° C | 70% | 1010.3 hPa | 0 mm | - | 0 W/m² | - |
| 1778033601 | 18.89° C | 69% | 1009.9 hPa | 0 mm | - | 0 W/m² | - |
| 1778033297 | 18.89° C | 70% | 1010.1 hPa | 0 mm | - | 0 W/m² | - |
| 1778032995 | 18.33° C | 72% | 1010.1 hPa | 0 mm | - | 0 W/m² | - |
| 1778032693 | 18.89° C | 71% | 1010.2 hPa | 0 mm | - | 0 W/m² | - |
| 1778032390 | 18.33° C | 71% | 1010.5 hPa | 0 mm | - | 0 W/m² | - |
| 1778032087 | 18.89° C | 72% | 1010.1 hPa | 0 mm | - | 0 W/m² | - |
| 1778030874 | 18.89° C | 73% | 1009.9 hPa | 0 mm | - | 0 W/m² | - |
| 1778030571 | 18.89° C | 72% | 1009.8 hPa | 0 mm | - | 0 W/m² | - |
| 1778030268 | 18.89° C | 71% | 1009.7 hPa | 0 mm | - | 0 W/m² | - |
| 1778029663 | 19.44° C | 71% | 1009.4 hPa | 0 mm | - | 0 W/m² | - |
| 1778029360 | 19.44° C | 70% | 1009.3 hPa | 0 mm | - | 0 W/m² | - |
| 1778027843 | 20° C | 68% | 1009.1 hPa | 0 mm | - | 0 W/m² | - |
* Rain latest hour (hover to see other rain measurements)
** Current wind speed in m/s (hover to see current wind gust speed)